createdAt,value
2018-12-01T00:00:51.731Z,4.57
2018-12-01T00:01:57.487Z,4.46
2018-12-01T00:03:03.326Z,4.36
2018-12-01T00:04:09.088Z,4.30
2018-12-01T00:05:14.843Z,4.29
2018-12-01T00:06:20.562Z,4.25
2018-12-01T00:07:26.221Z,4.28
2018-12-01T00:08:31.902Z,4.26
2018-12-01T00:09:37.616Z,4.19
2018-12-01T00:10:43.323Z,4.26
2018-12-01T00:11:49.007Z,4.32
2018-12-01T00:12:54.734Z,4.24
2018-12-01T00:14:00.477Z,4.15
2018-12-01T00:15:06.468Z,4.09
2018-12-01T00:16:12.183Z,4.02
2018-12-01T00:17:17.884Z,3.97
2018-12-01T00:18:23.613Z,3.89
2018-12-01T00:19:29.303Z,3.83
2018-12-01T00:20:35.052Z,4.01
2018-12-01T00:21:40.792Z,4.12
2018-12-01T00:22:46.173Z,4.08
2018-12-01T00:23:51.863Z,3.97
2018-12-01T00:24:57.564Z,3.96
2018-12-01T00:26:03.247Z,4.04
2018-12-01T00:27:08.922Z,3.90
2018-12-01T00:28:14.800Z,3.80
2018-12-01T00:29:20.500Z,3.80
2018-12-01T00:30:26.321Z,3.78
2018-12-01T00:31:32.041Z,3.76
2018-12-01T00:32:37.747Z,4.23
2018-12-01T00:33:43.413Z,4.28
2018-12-01T00:34:49.189Z,4.04
2018-12-01T00:35:54.921Z,3.98
2018-12-01T00:37:00.591Z,3.99
2018-12-01T00:38:05.558Z,3.95
2018-12-01T00:39:11.233Z,3.86
2018-12-01T00:40:16.614Z,3.69
2018-12-01T00:41:22.315Z,3.75
2018-12-01T00:42:27.981Z,3.98
2018-12-01T00:43:33.707Z,3.95
2018-12-01T00:44:39.434Z,3.89
2018-12-01T00:45:45.104Z,3.88
2018-12-01T00:46:50.762Z,3.93
2018-12-01T00:47:56.515Z,3.82
2018-12-01T00:49:02.218Z,3.87
2018-12-01T00:50:07.547Z,3.82
2018-12-01T00:51:13.206Z,3.76
2018-12-01T00:52:18.931Z,3.77
2018-12-01T00:53:24.682Z,3.66
2018-12-01T00:54:30.418Z,3.72
2018-12-01T00:55:36.142Z,3.69
2018-12-01T00:56:41.805Z,3.75
2018-12-01T00:57:47.145Z,3.78
2018-12-01T00:58:52.827Z,3.79
2018-12-01T00:59:58.641Z,3.72
2018-12-01T01:01:04.375Z,3.89
2018-12-01T01:02:09.781Z,3.88
2018-12-01T01:03:15.506Z,3.78
2018-12-01T01:04:21.271Z,3.77
2018-12-01T01:05:26.294Z,3.99
2018-12-01T01:06:31.963Z,4.21
2018-12-01T01:07:37.677Z,4.26
2018-12-01T01:08:43.407Z,4.15
2018-12-01T01:09:49.120Z,4.13
2018-12-01T01:10:54.850Z,4.00
2018-12-01T01:12:00.491Z,3.98
2018-12-01T01:13:05.469Z,3.96
2018-12-01T01:14:11.208Z,4.01
2018-12-01T01:15:16.532Z,3.90
2018-12-01T01:16:22.235Z,3.82
2018-12-01T01:17:27.892Z,3.73
2018-12-01T01:18:36.241Z,3.67
2018-12-01T01:19:43.717Z,3.68
2018-12-01T01:20:49.409Z,3.59
2018-12-01T01:21:55.098Z,3.50
2018-12-01T01:23:00.711Z,3.49
2018-12-01T01:24:06.060Z,3.52
2018-12-01T01:25:11.397Z,3.54
2018-12-01T01:26:17.078Z,3.56
2018-12-01T01:27:22.795Z,3.59
2018-12-01T01:28:28.466Z,3.71
2018-12-01T01:29:34.142Z,3.71
2018-12-01T01:30:39.851Z,3.67
2018-12-01T01:31:45.248Z,3.63
2018-12-01T01:32:51.403Z,3.70
2018-12-01T01:33:57.124Z,3.97
2018-12-01T01:35:02.801Z,4.12
2018-12-01T01:36:08.482Z,4.10
2018-12-01T01:37:14.336Z,3.97
2018-12-01T01:38:20.006Z,3.86
2018-12-01T01:39:26.069Z,3.79
2018-12-01T01:40:33.171Z,3.80
2018-12-01T01:41:38.863Z,3.84
2018-12-01T01:42:43.845Z,3.93
2018-12-01T01:43:49.553Z,3.98
2018-12-01T01:44:55.271Z,3.85
2018-12-01T01:46:01.029Z,3.79
2018-12-01T01:47:06.676Z,3.74
2018-12-01T01:48:12.368Z,3.99
2018-12-01T01:49:18.119Z,4.09
2018-12-01T01:50:23.791Z,4.10
2018-12-01T01:51:29.455Z,4.07
2018-12-01T01:52:35.137Z,3.93
2018-12-01T01:53:40.837Z,3.79
2018-12-01T01:54:46.559Z,3.69
2018-12-01T01:55:52.272Z,3.74
2018-12-01T01:56:57.909Z,4.00
2018-12-01T01:58:03.566Z,4.15
2018-12-01T01:59:08.819Z,4.22
2018-12-01T02:00:13.926Z,4.19
2018-12-01T02:01:19.591Z,4.07
2018-12-01T02:02:25.273Z,4.12
2018-12-01T02:03:30.948Z,4.10
2018-12-01T02:04:36.657Z,4.29
2018-12-01T02:05:42.378Z,4.36
2018-12-01T02:06:48.115Z,4.35
2018-12-01T02:07:53.794Z,4.40
2018-12-01T02:08:59.447Z,4.54
2018-12-01T02:10:04.472Z,4.46
2018-12-01T02:11:10.241Z,4.51
2018-12-01T02:12:15.931Z,4.66
2018-12-01T02:13:21.584Z,4.49
2018-12-01T02:14:27.322Z,4.39
2018-12-01T02:15:33.045Z,4.44
2018-12-01T02:16:38.740Z,4.47
2018-12-01T02:17:44.112Z,4.69
2018-12-01T02:18:49.811Z,4.73
2018-12-01T02:19:55.496Z,4.55
2018-12-01T02:21:00.922Z,4.59
2018-12-01T02:22:05.953Z,4.58
2018-12-01T02:23:11.629Z,4.51
2018-12-01T02:24:17.280Z,4.45
2018-12-01T02:25:23.047Z,4.42
2018-12-01T02:26:28.772Z,4.49
2018-12-01T02:27:34.457Z,4.48
2018-12-01T02:28:40.151Z,4.50
2018-12-01T02:29:45.824Z,4.44
2018-12-01T02:30:51.519Z,4.39
2018-12-01T02:31:57.176Z,4.47
2018-12-01T02:33:04.234Z,4.43
2018-12-01T02:34:10.362Z,4.48
2018-12-01T02:35:16.010Z,4.69
2018-12-01T02:36:21.706Z,4.60
2018-12-01T02:37:27.430Z,4.49
2018-12-01T02:38:33.121Z,4.48
2018-12-01T02:39:39.859Z,4.58
2018-12-01T02:40:45.533Z,4.55
2018-12-01T02:41:51.215Z,4.65
2018-12-01T02:43:02.653Z,4.58
2018-12-01T02:44:28.305Z,4.62
2018-12-01T02:47:16.517Z,4.59
2018-12-01T02:48:23.207Z,4.66
2018-12-01T02:49:30.465Z,4.70
2018-12-01T02:50:38.161Z,4.64
2018-12-01T02:51:49.054Z,4.67
2018-12-01T02:52:58.439Z,4.73
2018-12-01T02:54:08.571Z,4.69
2018-12-01T02:55:17.529Z,4.60
2018-12-01T02:56:26.088Z,4.65
2018-12-01T02:57:34.147Z,4.71
2018-12-01T02:58:46.128Z,4.75
2018-12-01T02:59:55.375Z,4.83
2018-12-01T03:01:03.531Z,4.52
2018-12-01T03:02:11.342Z,4.50
2018-12-01T03:03:20.585Z,4.45
2018-12-01T03:04:29.632Z,4.59
2018-12-01T03:05:38.379Z,4.63
2018-12-01T03:06:47.046Z,4.48
2018-12-01T03:07:55.736Z,4.46
2018-12-01T03:09:03.958Z,4.42
2018-12-01T03:10:14.430Z,4.40
2018-12-01T03:11:23.523Z,4.32
2018-12-01T03:12:31.379Z,4.38
2018-12-01T03:13:40.354Z,4.54
2018-12-01T03:14:52.873Z,4.64
2018-12-01T03:16:04.848Z,4.63
2018-12-01T03:17:11.936Z,4.51
2018-12-01T03:18:18.049Z,4.51
2018-12-01T03:19:25.300Z,4.41
2018-12-01T03:20:35.853Z,4.29
2018-12-01T03:21:47.014Z,4.23
2018-12-01T03:22:53.167Z,4.19
2018-12-01T03:24:01.869Z,4.25
2018-12-01T03:25:20.982Z,4.44
2018-12-01T03:26:34.515Z,4.43
2018-12-01T03:27:44.651Z,4.53
2018-12-01T03:28:57.293Z,4.55
2018-12-01T03:30:11.677Z,4.47
2018-12-01T03:31:19.805Z,4.32
2018-12-01T03:32:31.362Z,4.42
2018-12-01T03:33:42.561Z,4.49
2018-12-01T03:34:52.011Z,4.55
2018-12-01T03:35:59.650Z,4.51
2018-12-01T03:37:06.312Z,4.56
2018-12-01T03:38:15.400Z,4.52
2018-12-01T03:39:22.226Z,4.57
2018-12-01T03:40:31.545Z,4.67
2018-12-01T03:41:42.045Z,4.72
2018-12-01T03:42:50.929Z,4.79
2018-12-01T03:44:02.266Z,4.95
2018-12-01T03:45:09.295Z,4.92
2018-12-01T03:46:24.006Z,4.86
2018-12-01T03:47:36.574Z,4.94
2018-12-01T03:48:42.588Z,5.01
2018-12-01T03:49:54.114Z,4.97
2018-12-01T03:51:02.629Z,4.88
2018-12-01T03:52:08.663Z,4.95
2018-12-01T03:53:17.240Z,5.01
2018-12-01T03:54:23.247Z,4.93
2018-12-01T03:55:32.538Z,4.82
2018-12-01T03:56:39.066Z,4.82
2018-12-01T03:57:46.862Z,5.05
2018-12-01T03:58:53.784Z,4.97
2018-12-01T04:00:00.703Z,5.09
2018-12-01T04:01:09.097Z,4.99
2018-12-01T04:02:15.887Z,5.05
2018-12-01T04:03:21.748Z,4.99
2018-12-01T04:04:28.858Z,4.89
2018-12-01T04:05:38.933Z,5.03
2018-12-01T04:06:45.283Z,5.02
2018-12-01T04:07:53.342Z,5.02
2018-12-01T04:09:00.385Z,5.01
2018-12-01T04:10:05.960Z,4.91
2018-12-01T04:11:13.124Z,4.95
2018-12-01T04:12:23.831Z,5.01
2018-12-01T04:13:33.464Z,5.08
2018-12-01T04:14:39.431Z,4.99
2018-12-01T04:15:52.104Z,5.03
2018-12-01T04:16:58.393Z,4.99
2018-12-01T04:18:08.239Z,4.95
2018-12-01T04:19:15.489Z,5.01
2018-12-01T04:20:26.273Z,5.24
2018-12-01T04:21:33.408Z,5.26
2018-12-01T04:22:40.656Z,5.14
2018-12-01T04:23:54.008Z,5.00
2018-12-01T04:25:01.275Z,5.16
2018-12-01T04:26:10.934Z,5.12
2018-12-01T04:27:24.044Z,5.11
2018-12-01T04:28:31.129Z,5.09
2018-12-01T04:29:41.386Z,4.99
2018-12-01T04:30:47.690Z,5.08
2018-12-01T04:31:55.783Z,5.02
2018-12-01T04:33:04.443Z,5.00
2018-12-01T04:34:13.832Z,5.18
2018-12-01T04:35:25.284Z,5.03
2018-12-01T04:36:36.218Z,5.02
2018-12-01T04:37:44.983Z,5.00
2018-12-01T04:38:56.365Z,4.96
2018-12-01T04:40:04.361Z,5.05
2018-12-01T04:41:12.655Z,5.08
2018-12-01T04:42:19.034Z,4.99
2018-12-01T04:43:26.892Z,4.97
2018-12-01T04:44:35.657Z,4.96
2018-12-01T04:45:46.464Z,4.99
2018-12-01T04:46:53.711Z,5.00
2018-12-01T04:48:01.524Z,5.05
2018-12-01T04:49:10.926Z,5.10
2018-12-01T04:50:17.553Z,4.96
2018-12-01T04:51:25.873Z,4.88
2018-12-01T04:52:35.647Z,4.95
2018-12-01T04:53:42.921Z,5.16
2018-12-01T04:54:48.937Z,5.04
2018-12-01T04:55:55.643Z,5.16
2018-12-01T04:57:05.077Z,5.23
2018-12-01T04:58:11.219Z,5.28
2018-12-01T04:59:19.182Z,5.17
2018-12-01T05:00:25.266Z,5.20
2018-12-01T05:01:33.030Z,5.25
2018-12-01T05:02:40.258Z,5.32
2018-12-01T05:03:47.559Z,5.25
2018-12-01T05:04:54.642Z,5.27
2018-12-01T05:06:00.675Z,5.22
2018-12-01T05:07:09.119Z,5.28
2018-12-01T05:08:15.917Z,5.38
2018-12-01T05:09:23.883Z,5.25
2018-12-01T05:10:30.334Z,5.16
2018-12-01T05:11:38.017Z,5.23
2018-12-01T05:12:47.508Z,5.29
2018-12-01T05:13:57.942Z,5.28
2018-12-01T05:15:06.920Z,5.43
2018-12-01T05:16:18.656Z,5.32
2018-12-01T05:17:24.401Z,5.28
2018-12-01T05:18:32.586Z,5.22
2018-12-01T05:19:42.193Z,5.28
2018-12-01T05:20:54.390Z,5.23
2018-12-01T05:22:05.102Z,5.22
2018-12-01T05:23:11.192Z,5.40
2018-12-01T05:24:19.404Z,5.39
2018-12-01T05:25:28.643Z,5.49
2018-12-01T05:26:35.392Z,5.44
2018-12-01T05:27:43.950Z,5.42
2018-12-01T05:28:52.743Z,5.27
2018-12-01T05:30:00.131Z,5.29
2018-12-01T05:31:06.921Z,5.33
2018-12-01T05:32:17.231Z,5.16
2018-12-01T05:33:23.988Z,5.11
2018-12-01T05:34:32.340Z,5.04
2018-12-01T05:35:38.846Z,4.97
2018-12-01T05:36:46.672Z,4.92
2018-12-01T05:37:54.683Z,4.87
2018-12-01T05:39:04.978Z,4.97
2018-12-01T05:40:11.795Z,5.09
2018-12-01T05:41:21.179Z,5.05
2018-12-01T05:42:29.086Z,5.23
2018-12-01T05:43:36.964Z,5.15
2018-12-01T05:44:43.705Z,5.27
2018-12-01T05:45:52.105Z,5.20
2018-12-01T05:46:58.614Z,5.15
2018-12-01T05:48:05.794Z,5.10
2018-12-01T05:49:19.654Z,5.18
2018-12-01T05:50:29.582Z,5.10
2018-12-01T05:51:39.834Z,5.24
2018-12-01T05:52:49.690Z,5.18
2018-12-01T05:54:00.904Z,5.08
2018-12-01T05:55:06.809Z,4.99
2018-12-01T05:56:12.761Z,4.90
2018-12-01T05:57:21.217Z,5.00
2018-12-01T05:58:31.241Z,5.06
2018-12-01T05:59:40.526Z,4.96
2018-12-01T06:00:48.211Z,5.01
2018-12-01T06:01:55.734Z,4.99
2018-12-01T06:03:02.592Z,4.96
2018-12-01T06:04:14.271Z,4.93
2018-12-01T06:05:21.097Z,4.85
2018-12-01T06:06:28.795Z,4.79
2018-12-01T06:07:34.844Z,4.76
2018-12-01T06:08:40.783Z,5.00
2018-12-01T06:09:48.511Z,4.89
2018-12-01T06:10:58.262Z,5.01
2018-12-01T06:12:04.611Z,4.96
2018-12-01T06:13:21.029Z,4.87
2018-12-01T06:14:34.771Z,4.83
2018-12-01T06:15:43.452Z,5.00
2018-12-01T06:16:52.122Z,4.80
2018-12-01T06:17:59.083Z,4.88
2018-12-01T06:19:08.066Z,5.05
2018-12-01T06:20:22.549Z,5.12
2018-12-01T06:21:33.834Z,5.00
2018-12-01T06:22:43.333Z,4.91
2018-12-01T06:23:50.702Z,4.76
2018-12-01T06:24:58.014Z,4.67
2018-12-01T06:26:07.627Z,4.74
2018-12-01T06:27:14.952Z,4.71
2018-12-01T06:28:22.802Z,4.76
2018-12-01T06:29:31.475Z,4.67
2018-12-01T06:30:40.860Z,4.53
2018-12-01T06:31:47.980Z,4.55
2018-12-01T06:32:55.694Z,4.47
2018-12-01T06:34:02.435Z,4.45
2018-12-01T06:35:08.226Z,4.44
2018-12-01T06:36:14.711Z,4.36
2018-12-01T06:37:23.032Z,4.35
2018-12-01T06:38:33.147Z,4.35
2018-12-01T06:39:43.103Z,4.25
2018-12-01T06:40:52.925Z,4.18
2018-12-01T06:42:02.040Z,4.32
2018-12-01T06:43:10.157Z,4.33
2018-12-01T06:44:16.603Z,4.28
2018-12-01T06:45:23.566Z,4.34
2018-12-01T06:46:32.506Z,4.34
2018-12-01T06:47:38.329Z,4.26
2018-12-01T06:48:46.315Z,4.39
2018-12-01T06:49:57.896Z,4.33
2018-12-01T06:51:05.111Z,4.20
2018-12-01T06:52:11.980Z,4.20
2018-12-01T06:53:20.718Z,4.33
2018-12-01T06:54:31.223Z,4.26
2018-12-01T06:55:41.041Z,4.17
2018-12-01T06:56:56.520Z,4.20
2018-12-01T06:58:04.298Z,3.99
2018-12-01T06:59:10.344Z,3.96
2018-12-01T07:00:18.311Z,3.97
2018-12-01T07:01:27.299Z,3.95
2018-12-01T07:02:39.941Z,3.98
2018-12-01T07:03:48.811Z,3.86
2018-12-01T07:04:57.693Z,4.18
2018-12-01T07:06:04.170Z,4.05
2018-12-01T07:07:13.751Z,4.17
2018-12-01T07:08:22.049Z,4.13
2018-12-01T07:09:28.907Z,4.11
2018-12-01T07:10:37.288Z,4.27
2018-12-01T07:11:46.677Z,4.31
2018-12-01T07:12:52.644Z,4.06
2018-12-01T07:14:01.848Z,4.10
2018-12-01T07:15:10.121Z,4.22
2018-12-01T07:16:19.966Z,4.32
2018-12-01T07:17:30.987Z,4.44
2018-12-01T07:20:14.793Z,4.61
2018-12-01T07:21:22.147Z,4.50
2018-12-01T07:22:30.658Z,4.44
2018-12-01T07:23:39.377Z,4.44
2018-12-01T07:24:48.945Z,4.48
2018-12-01T07:25:56.527Z,4.53
2018-12-01T07:27:03.341Z,4.68
2018-12-01T07:28:10.992Z,4.70
2018-12-01T07:29:20.784Z,4.71
2018-12-01T07:30:33.019Z,4.74
2018-12-01T07:31:40.088Z,4.64
2018-12-01T07:32:48.408Z,4.50
2018-12-01T07:33:55.813Z,4.62
2018-12-01T07:35:01.980Z,4.70
2018-12-01T07:36:07.955Z,4.91
2018-12-01T07:37:18.517Z,4.92
2018-12-01T07:38:27.133Z,4.83
2018-12-01T07:39:33.088Z,5.00
2018-12-01T07:40:41.465Z,5.02
2018-12-01T07:41:51.672Z,5.01
2018-12-01T07:43:00.183Z,4.98
2018-12-01T07:44:07.850Z,4.92
2018-12-01T07:45:14.324Z,4.98
2018-12-01T07:46:21.240Z,5.14
2018-12-01T07:47:28.401Z,5.19
2018-12-01T07:48:37.437Z,5.20
2018-12-01T07:49:43.277Z,5.21
2018-12-01T07:50:50.922Z,5.31
2018-12-01T07:51:59.260Z,5.24
2018-12-01T07:53:09.798Z,5.27
2018-12-01T07:54:16.965Z,5.26
2018-12-01T07:55:24.121Z,5.17
2018-12-01T07:56:33.521Z,5.31
2018-12-01T07:57:42.200Z,5.14
2018-12-01T07:58:49.436Z,5.24
2018-12-01T07:59:58.545Z,5.22
2018-12-01T08:01:08.049Z,5.25
2018-12-01T08:02:16.647Z,5.35
2018-12-01T08:03:24.757Z,5.37
2018-12-01T08:04:33.635Z,5.42
2018-12-01T08:05:43.407Z,5.36
2018-12-01T08:06:49.722Z,5.36
2018-12-01T08:07:57.663Z,5.27
2018-12-01T08:09:06.397Z,5.38
2018-12-01T08:10:13.194Z,5.24
2018-12-01T08:11:22.533Z,5.29
2018-12-01T08:12:31.913Z,5.33
2018-12-01T08:13:41.183Z,5.39
2018-12-01T08:14:49.033Z,5.43
2018-12-01T08:16:00.485Z,5.42
2018-12-01T08:17:06.181Z,5.44
2018-12-01T08:18:15.323Z,5.43
2018-12-01T08:19:24.448Z,5.42
2018-12-01T08:20:32.182Z,5.33
2018-12-01T08:21:42.907Z,5.25
2018-12-01T08:22:50.319Z,5.32
2018-12-01T08:23:58.583Z,5.32
2018-12-01T08:25:07.222Z,5.47
2018-12-01T08:26:14.311Z,5.37
2018-12-01T08:27:26.243Z,5.53
2018-12-01T08:28:36.554Z,5.56
2018-12-01T08:29:53.578Z,5.58
2018-12-01T08:31:02.826Z,5.64
2018-12-01T08:32:14.140Z,5.76
2018-12-01T08:33:23.273Z,5.85
2018-12-01T08:34:34.019Z,5.88
2018-12-01T08:35:43.005Z,5.70
2018-12-01T08:36:57.512Z,5.75
2018-12-01T08:38:04.901Z,5.91
2018-12-01T08:39:14.467Z,5.85
2018-12-01T08:40:22.201Z,5.74
2018-12-01T08:41:31.599Z,5.79
2018-12-01T08:42:43.166Z,5.77
2018-12-01T08:43:53.584Z,5.79
2018-12-01T08:45:07.032Z,5.96
2018-12-01T08:46:17.307Z,5.92
2018-12-01T08:47:24.275Z,6.04
2018-12-01T08:48:33.113Z,6.02
2018-12-01T08:49:40.440Z,6.16
2018-12-01T08:50:48.331Z,6.13
2018-12-01T08:52:00.942Z,6.19
2018-12-01T08:53:11.114Z,6.22
2018-12-01T08:54:21.468Z,6.20
2018-12-01T08:55:28.722Z,6.16
2018-12-01T08:56:41.589Z,6.28
2018-12-01T08:57:49.790Z,6.20
2018-12-01T08:58:58.429Z,6.28
2018-12-01T09:00:05.868Z,6.32
2018-12-01T09:01:14.195Z,6.26
2018-12-01T09:02:25.831Z,6.33
2018-12-01T09:03:37.076Z,6.36
2018-12-01T09:04:45.663Z,6.31
2018-12-01T09:05:56.577Z,6.42
2018-12-01T09:07:04.794Z,6.52
2018-12-01T09:08:12.495Z,6.47
2018-12-01T09:09:21.576Z,6.62
2018-12-01T09:10:28.004Z,6.68
2018-12-01T09:11:37.964Z,6.65
2018-12-01T09:12:46.817Z,6.67
2018-12-01T09:13:54.121Z,6.65
2018-12-01T09:15:03.216Z,6.62
2018-12-01T09:16:12.141Z,6.75
2018-12-01T09:17:22.040Z,6.73
2018-12-01T09:18:29.511Z,6.70
2018-12-01T09:19:38.976Z,6.76
2018-12-01T09:20:46.786Z,6.69
2018-12-01T09:21:54.843Z,6.76
2018-12-01T09:23:03.793Z,6.80
2018-12-01T09:24:18.680Z,6.84
2018-12-01T09:25:29.550Z,6.86
2018-12-01T09:26:38.145Z,7.02
2018-12-01T09:27:44.966Z,7.09
2018-12-01T09:28:53.200Z,7.05
2018-12-01T09:30:01.813Z,7.08
2018-12-01T09:31:07.753Z,7.21
2018-12-01T09:32:16.240Z,7.18
2018-12-01T09:33:23.464Z,7.16
2018-12-01T09:34:31.852Z,7.12
2018-12-01T09:35:39.656Z,7.10
2018-12-01T09:36:47.327Z,7.15
2018-12-01T09:37:57.219Z,7.22
2018-12-01T09:39:05.485Z,7.22
2018-12-01T09:40:13.619Z,7.27
2018-12-01T09:41:22.437Z,7.24
2018-12-01T09:42:32.273Z,7.26
2018-12-01T09:43:41.975Z,7.19
2018-12-01T09:44:49.541Z,7.31
2018-12-01T09:46:02.258Z,7.43
2018-12-01T09:47:09.304Z,7.56
2018-12-01T09:48:19.436Z,7.45
2018-12-01T09:49:26.491Z,7.52
2018-12-01T09:50:35.664Z,7.59
2018-12-01T09:51:44.800Z,7.55
2018-12-01T09:52:55.704Z,7.59
2018-12-01T09:54:03.219Z,7.61
2018-12-01T09:55:09.636Z,7.62
2018-12-01T09:56:17.092Z,7.71
2018-12-01T09:57:24.888Z,7.77
2018-12-01T09:58:30.970Z,7.76
2018-12-01T09:59:40.034Z,7.75
2018-12-01T10:00:47.110Z,7.75
2018-12-01T10:01:56.684Z,7.75
2018-12-01T10:03:02.568Z,7.76
2018-12-01T10:04:09.546Z,7.81
2018-12-01T10:05:16.683Z,7.84
2018-12-01T10:06:23.320Z,7.87
2018-12-01T10:07:31.476Z,7.93
2018-12-01T10:08:38.995Z,8.04
2018-12-01T10:09:46.049Z,8.12
2018-12-01T10:10:53.883Z,8.09
2018-12-01T10:12:00.183Z,8.10
2018-12-01T10:13:08.843Z,8.09
2018-12-01T10:14:17.733Z,8.11
2018-12-01T10:15:27.499Z,8.08
2018-12-01T10:16:38.460Z,8.13
2018-12-01T10:17:46.261Z,8.07
2018-12-01T10:18:56.563Z,8.06
2018-12-01T10:20:07.209Z,8.12
2018-12-01T10:21:16.602Z,8.17
2018-12-01T10:22:23.069Z,8.15
2018-12-01T10:23:32.461Z,8.05
2018-12-01T10:24:41.898Z,8.17
2018-12-01T10:25:51.037Z,8.25
2018-12-01T10:26:59.865Z,8.27
2018-12-01T10:28:08.473Z,8.04
2018-12-01T10:29:14.849Z,8.11
2018-12-01T10:30:26.498Z,8.12
2018-12-01T10:31:34.519Z,8.07
2018-12-01T10:32:41.780Z,8.11
2018-12-01T10:33:47.551Z,8.17
2018-12-01T10:34:55.157Z,8.12
2018-12-01T10:36:02.010Z,8.26
2018-12-01T10:37:07.890Z,8.27
2018-12-01T10:38:14.843Z,8.32
2018-12-01T10:39:23.200Z,8.29
2018-12-01T10:40:34.942Z,8.39
2018-12-01T10:41:40.742Z,8.28
2018-12-01T10:42:46.611Z,8.27
2018-12-01T10:43:52.497Z,8.41
2018-12-01T10:44:58.586Z,8.45
2018-12-01T10:46:04.861Z,8.22
2018-12-01T10:47:12.484Z,8.23
2018-12-01T10:48:28.658Z,8.28
2018-12-01T10:49:38.387Z,8.43
2018-12-01T10:50:49.143Z,8.48
2018-12-01T10:51:56.813Z,8.46
2018-12-01T10:53:03.847Z,8.28
2018-12-01T10:54:12.404Z,8.28
2018-12-01T10:55:22.542Z,8.31
2018-12-01T10:56:30.733Z,8.41
2018-12-01T10:57:36.638Z,8.44
2018-12-01T10:58:43.596Z,8.34
2018-12-01T10:59:53.256Z,8.33
2018-12-01T11:01:05.112Z,8.36
2018-12-01T11:02:17.053Z,8.28
2018-12-01T11:03:31.628Z,8.24
2018-12-01T11:04:38.049Z,8.43
2018-12-01T11:05:49.094Z,8.49
2018-12-01T11:06:55.101Z,8.41
2018-12-01T11:08:01.632Z,8.40
2018-12-01T11:09:15.947Z,8.34
2018-12-01T11:10:22.629Z,8.24
2018-12-01T11:11:32.317Z,8.35
2018-12-01T11:12:38.097Z,8.37
2018-12-01T11:13:47.317Z,8.57
2018-12-01T11:15:03.429Z,8.53
2018-12-01T11:16:14.673Z,8.65
2018-12-01T11:17:21.807Z,8.76
2018-12-01T11:18:30.350Z,8.81
2018-12-01T11:19:40.259Z,8.92
2018-12-01T11:20:50.091Z,8.92
2018-12-01T11:21:58.279Z,8.85
2018-12-01T11:23:07.277Z,8.94
2018-12-01T11:24:16.507Z,8.96
2018-12-01T11:25:23.417Z,9.03
2018-12-01T11:26:31.296Z,9.02
2018-12-01T11:27:36.632Z,9.07
2018-12-01T11:28:42.251Z,9.04
2018-12-01T11:29:52.907Z,9.07
2018-12-01T11:31:01.496Z,8.98
2018-12-01T11:32:11.530Z,8.75
2018-12-01T11:33:17.890Z,8.79
2018-12-01T11:34:26.360Z,8.75
2018-12-01T11:35:34.635Z,8.83
2018-12-01T11:36:42.663Z,8.95
2018-12-01T11:37:52.135Z,9.14
2018-12-01T11:38:58.255Z,9.05
2018-12-01T11:40:03.995Z,9.12
2018-12-01T11:41:10.313Z,9.06
2018-12-01T11:42:18.005Z,9.21
2018-12-01T11:43:25.224Z,9.16
2018-12-01T11:44:33.104Z,9.17
2018-12-01T11:45:41.508Z,9.27
2018-12-01T11:46:52.172Z,9.22
2018-12-01T11:48:00.944Z,9.12
2018-12-01T11:49:09.547Z,9.17
2018-12-01T11:50:18.756Z,9.20
2018-12-01T11:51:27.517Z,9.34
2018-12-01T11:52:34.171Z,9.27
2018-12-01T11:53:44.555Z,9.34
2018-12-01T11:54:53.626Z,9.32
2018-12-01T11:56:06.184Z,9.34
2018-12-01T11:57:18.778Z,9.28
2018-12-01T11:58:27.721Z,9.45
2018-12-01T11:59:35.764Z,9.44
2018-12-01T12:00:44.961Z,9.31
2018-12-01T12:02:00.467Z,9.40
2018-12-01T12:03:04.632Z,9.40
2018-12-01T12:04:10.683Z,9.24
2018-12-01T12:05:16.211Z,9.27
2018-12-01T12:06:27.565Z,9.30
2018-12-01T12:07:45.034Z,9.37
2018-12-01T12:08:52.750Z,9.34
2018-12-01T12:09:59.246Z,9.32
2018-12-01T12:11:07.320Z,9.27
2018-12-01T12:12:15.669Z,9.32
2018-12-01T12:13:21.283Z,9.23
2018-12-01T12:14:28.044Z,9.31
2018-12-01T12:15:34.842Z,9.23
2018-12-01T12:16:41.291Z,9.22
2018-12-01T12:17:47.793Z,9.18
2018-12-01T12:18:55.417Z,9.27
2018-12-01T12:20:05.438Z,9.23
2018-12-01T12:21:14.741Z,9.19
2018-12-01T12:22:24.948Z,9.13
2018-12-01T12:23:32.838Z,9.03
2018-12-01T12:24:39.948Z,9.03
2018-12-01T12:25:50.383Z,9.17
2018-12-01T12:26:57.248Z,9.22
2018-12-01T12:28:07.023Z,9.14
2018-12-01T12:29:12.783Z,9.09
2018-12-01T12:30:19.502Z,9.12
2018-12-01T12:31:25.043Z,9.17
2018-12-01T12:32:34.844Z,9.16
2018-12-01T12:33:45.893Z,9.15
2018-12-01T12:34:53.153Z,9.16
2018-12-01T12:36:00.383Z,9.19
2018-12-01T12:37:10.882Z,9.22
2018-12-01T12:38:20.225Z,9.29
2018-12-01T12:39:27.585Z,9.16
2018-12-01T12:40:36.100Z,9.22
2018-12-01T12:41:42.952Z,9.30
2018-12-01T12:42:49.685Z,9.30
2018-12-01T12:44:02.414Z,9.30
2018-12-01T12:45:08.946Z,9.29
2018-12-01T12:46:14.754Z,9.18
2018-12-01T12:47:22.282Z,9.22
2018-12-01T12:48:30.071Z,9.19
2018-12-01T12:49:37.255Z,9.27
2018-12-01T12:50:44.713Z,9.24
2018-12-01T12:51:53.514Z,9.18
2018-12-01T12:53:00.662Z,9.13
2018-12-01T12:54:08.736Z,9.20
2018-12-01T12:55:18.908Z,9.13
2018-12-01T12:56:29.234Z,9.37
2018-12-01T12:57:37.608Z,9.22
2018-12-01T12:58:47.860Z,9.13
2018-12-01T12:59:59.062Z,9.14
2018-12-01T13:01:07.151Z,9.30
2018-12-01T13:02:16.279Z,9.34
2018-12-01T13:03:28.355Z,9.26
2018-12-01T13:04:38.222Z,9.22
2018-12-01T13:05:46.705Z,9.34
2018-12-01T13:06:56.290Z,9.39
2018-12-01T13:08:02.312Z,9.40
2018-12-01T13:09:09.073Z,9.35
2018-12-01T13:10:17.218Z,9.39
2018-12-01T13:11:28.686Z,9.38
2018-12-01T13:12:36.034Z,9.34
2018-12-01T13:13:44.156Z,9.45
2018-12-01T13:14:52.053Z,9.34
2018-12-01T13:16:01.889Z,9.43
2018-12-01T13:17:07.730Z,9.41
2018-12-01T13:18:15.011Z,9.23
2018-12-01T13:19:22.812Z,9.36
2018-12-01T13:20:32.255Z,9.43
2018-12-01T13:21:41.964Z,9.32
2018-12-01T13:22:52.214Z,9.31
2018-12-01T13:24:00.289Z,9.19
2018-12-01T13:25:07.553Z,9.14
2018-12-01T13:26:14.778Z,9.25
2018-12-01T13:27:22.043Z,9.33
2018-12-01T13:28:30.000Z,9.41
2018-12-01T13:29:39.760Z,9.46
2018-12-01T13:30:47.379Z,9.44
2018-12-01T13:31:54.973Z,9.42
2018-12-01T13:33:00.862Z,9.45
2018-12-01T13:34:13.239Z,9.61
2018-12-01T13:35:19.446Z,9.56
2018-12-01T13:36:29.194Z,9.57
2018-12-01T13:37:41.922Z,9.52
2018-12-01T13:38:49.940Z,9.48
2018-12-01T13:39:57.637Z,9.55
2018-12-01T13:41:06.360Z,9.60
2018-12-01T13:42:16.033Z,9.56
2018-12-01T13:43:26.158Z,9.60
2018-12-01T13:44:35.188Z,9.64
2018-12-01T13:45:42.877Z,9.63
2018-12-01T13:46:49.145Z,9.60
2018-12-01T13:47:58.526Z,9.63
2018-12-01T13:49:10.221Z,9.51
2018-12-01T13:50:17.140Z,9.54
2018-12-01T13:51:28.728Z,9.52
2018-12-01T13:52:35.520Z,9.46
2018-12-01T13:53:44.336Z,9.43
2018-12-01T13:54:53.423Z,9.42
2018-12-01T13:56:02.882Z,9.46
2018-12-01T13:57:14.049Z,9.45
2018-12-01T13:58:22.144Z,9.39
2018-12-01T13:59:29.285Z,9.27
2018-12-01T14:00:35.993Z,9.23
2018-12-01T14:01:43.641Z,9.19
2018-12-01T14:02:49.721Z,9.19
2018-12-01T14:03:59.227Z,9.16
2018-12-01T14:05:06.712Z,9.05
2018-12-01T14:06:15.902Z,9.07
2018-12-01T14:07:23.756Z,9.08
2018-12-01T14:08:29.401Z,9.08
2018-12-01T14:09:38.790Z,8.90
2018-12-01T14:10:47.920Z,8.94
2018-12-01T14:11:55.061Z,8.89
2018-12-01T14:13:03.235Z,8.92
2018-12-01T14:14:11.616Z,8.99
2018-12-01T14:15:18.595Z,8.84
2018-12-01T14:16:27.080Z,8.80
2018-12-01T14:17:33.870Z,8.84
2018-12-01T14:18:42.157Z,8.88
2018-12-01T14:19:55.785Z,8.88
2018-12-01T14:21:08.941Z,8.76
2018-12-01T14:22:15.551Z,8.75
2018-12-01T14:23:21.953Z,8.93
2018-12-01T14:24:31.815Z,8.74
2018-12-01T14:25:38.836Z,8.78
2018-12-01T14:26:44.957Z,8.86
2018-12-01T14:27:52.258Z,8.81
2018-12-01T14:28:59.610Z,8.65
2018-12-01T14:30:08.217Z,8.71
2018-12-01T14:31:15.094Z,8.84
2018-12-01T14:32:24.652Z,8.65
2018-12-01T14:33:33.964Z,8.75
2018-12-01T14:34:44.259Z,8.63
2018-12-01T14:35:51.396Z,8.66
2018-12-01T14:36:59.206Z,8.79
2018-12-01T14:38:11.524Z,8.71
2018-12-01T14:39:18.999Z,8.80
2018-12-01T14:40:31.723Z,8.76
2018-12-01T14:41:40.276Z,8.60
2018-12-01T14:42:51.425Z,8.67
2018-12-01T14:43:59.663Z,8.77
2018-12-01T14:45:06.168Z,8.70
2018-12-01T14:46:12.242Z,8.67
2018-12-01T14:47:20.171Z,8.60
2018-12-01T14:48:26.852Z,8.61
2018-12-01T14:49:34.007Z,8.77
2018-12-01T14:50:41.019Z,8.78
2018-12-01T14:51:48.587Z,8.70
2018-12-01T14:52:56.403Z,8.63
2018-12-01T14:54:09.940Z,8.63
2018-12-01T14:55:20.691Z,8.65
2018-12-01T14:56:29.198Z,8.60
2018-12-01T14:57:36.955Z,8.58
2018-12-01T14:58:45.322Z,8.55
2018-12-01T14:59:55.309Z,8.66
2018-12-01T15:01:04.283Z,8.74
2018-12-01T15:02:11.816Z,8.74
2018-12-01T15:03:18.689Z,8.71
2018-12-01T15:04:25.297Z,8.68
2018-12-01T15:05:32.154Z,8.60
2018-12-01T15:06:42.291Z,8.67
2018-12-01T15:07:51.125Z,8.51
2018-12-01T15:08:58.327Z,8.51
2018-12-01T15:10:08.153Z,8.60